sensor_id;sensor_type;location;lat;lon;timestamp;temperature;humidity
463;DHT22;218;51.902;9.542;2022-12-07T00:01:24;7.60;1.00
463;DHT22;218;51.902;9.542;2022-12-07T00:03:52;7.30;1.00
463;DHT22;218;51.902;9.542;2022-12-07T00:06:20;7.30;1.00
463;DHT22;218;51.902;9.542;2022-12-07T00:08:48;8.10;1.00
463;DHT22;218;51.902;9.542;2022-12-07T00:11:17;7.30;1.00
463;DHT22;218;51.902;9.542;2022-12-07T00:13:45;7.30;1.00
463;DHT22;218;51.902;9.542;2022-12-07T00:16:14;7.40;1.00
463;DHT22;218;51.902;9.542;2022-12-07T00:18:42;7.30;1.00
463;DHT22;218;51.902;9.542;2022-12-07T00:21:11;7.30;1.00
463;DHT22;218;51.902;9.542;2022-12-07T00:23:39;7.40;1.00
463;DHT22;218;51.902;9.542;2022-12-07T00:26:07;7.40;1.00
463;DHT22;218;51.902;9.542;2022-12-07T00:28:35;7.40;1.00
463;DHT22;218;51.902;9.542;2022-12-07T00:31:05;7.40;1.00
463;DHT22;218;51.902;9.542;2022-12-07T00:33:32;7.40;1.00
463;DHT22;218;51.902;9.542;2022-12-07T00:36:00;7.40;1.00
463;DHT22;218;51.902;9.542;2022-12-07T00:38:28;7.90;1.00
463;DHT22;218;51.902;9.542;2022-12-07T00:40:56;7.40;1.00
463;DHT22;218;51.902;9.542;2022-12-07T00:43:23;7.30;1.00
463;DHT22;218;51.902;9.542;2022-12-07T00:45:52;7.30;1.00
463;DHT22;218;51.902;9.542;2022-12-07T00:48:19;7.30;1.00
463;DHT22;218;51.902;9.542;2022-12-07T00:50:46;7.30;1.00
463;DHT22;218;51.902;9.542;2022-12-07T00:53:13;7.50;1.00
463;DHT22;218;51.902;9.542;2022-12-07T00:55:40;7.30;1.00
463;DHT22;218;51.902;9.542;2022-12-07T00:58:07;7.30;1.00
463;DHT22;218;51.902;9.542;2022-12-07T01:00:36;7.30;1.00
463;DHT22;218;51.902;9.542;2022-12-07T01:03:05;7.30;1.00
463;DHT22;218;51.902;9.542;2022-12-07T01:05:34;7.30;1.00
463;DHT22;218;51.902;9.542;2022-12-07T01:08:01;7.30;1.00
463;DHT22;218;51.902;9.542;2022-12-07T01:10:28;7.40;1.00
463;DHT22;218;51.902;9.542;2022-12-07T01:12:57;7.40;1.00
463;DHT22;218;51.902;9.542;2022-12-07T01:15:24;7.40;1.00
463;DHT22;218;51.902;9.542;2022-12-07T01:17:51;7.40;1.00
463;DHT22;218;51.902;9.542;2022-12-07T01:20:21;7.30;1.00
463;DHT22;218;51.902;9.542;2022-12-07T01:22:48;7.80;1.00
463;DHT22;218;51.902;9.542;2022-12-07T01:25:15;7.40;1.00
463;DHT22;218;51.902;9.542;2022-12-07T01:27:42;7.30;1.00
463;DHT22;218;51.902;9.542;2022-12-07T01:30:11;7.50;1.00
463;DHT22;218;51.902;9.542;2022-12-07T01:32:38;7.40;1.00
463;DHT22;218;51.902;9.542;2022-12-07T01:35:06;7.40;1.00
463;DHT22;218;51.902;9.542;2022-12-07T01:37:36;7.40;1.00
463;DHT22;218;51.902;9.542;2022-12-07T01:40:05;7.40;1.00
463;DHT22;218;51.902;9.542;2022-12-07T01:42:33;7.40;1.00
463;DHT22;218;51.902;9.542;2022-12-07T01:48:11;7.40;1.00
463;DHT22;218;51.902;9.542;2022-12-07T01:50:40;7.40;1.00
463;DHT22;218;51.902;9.542;2022-12-07T01:53:11;7.30;1.00
463;DHT22;218;51.902;9.542;2022-12-07T01:55:41;7.40;1.00
463;DHT22;218;51.902;9.542;2022-12-07T01:58:09;7.40;1.00
463;DHT22;218;51.902;9.542;2022-12-07T02:00:37;7.30;1.00
463;DHT22;218;51.902;9.542;2022-12-07T02:03:06;7.40;1.00
463;DHT22;218;51.902;9.542;2022-12-07T02:05:35;7.40;1.00
463;DHT22;218;51.902;9.542;2022-12-07T02:08:03;7.40;1.00
463;DHT22;218;51.902;9.542;2022-12-07T02:10:32;7.40;1.00
463;DHT22;218;51.902;9.542;2022-12-07T02:13:02;7.40;1.00
463;DHT22;218;51.902;9.542;2022-12-07T02:15:39;7.40;1.00
463;DHT22;218;51.902;9.542;2022-12-07T02:18:13;7.40;1.00
463;DHT22;218;51.902;9.542;2022-12-07T02:20:52;7.40;1.00
463;DHT22;218;51.902;9.542;2022-12-07T02:23:41;7.40;1.00
463;DHT22;218;51.902;9.542;2022-12-07T02:26:47;7.40;1.00
463;DHT22;218;51.902;9.542;2022-12-07T02:29:25;7.40;1.00
463;DHT22;218;51.902;9.542;2022-12-07T02:31:59;7.40;1.00
463;DHT22;218;51.902;9.542;2022-12-07T02:34:34;7.40;1.00
463;DHT22;218;51.902;9.542;2022-12-07T02:37:06;7.40;1.00
463;DHT22;218;51.902;9.542;2022-12-07T02:39:40;7.40;1.00
463;DHT22;218;51.902;9.542;2022-12-07T02:42:13;7.40;1.00
463;DHT22;218;51.902;9.542;2022-12-07T02:44:44;7.40;1.00
463;DHT22;218;51.902;9.542;2022-12-07T02:47:14;7.40;1.00
463;DHT22;218;51.902;9.542;2022-12-07T02:49:42;7.40;1.00
463;DHT22;218;51.902;9.542;2022-12-07T02:52:09;7.50;1.00
463;DHT22;218;51.902;9.542;2022-12-07T02:54:36;8.10;1.00
463;DHT22;218;51.902;9.542;2022-12-07T02:57:22;7.50;1.00
463;DHT22;218;51.902;9.542;2022-12-07T03:00:00;7.40;1.00
463;DHT22;218;51.902;9.542;2022-12-07T03:02:36;7.50;1.00
463;DHT22;218;51.902;9.542;2022-12-07T03:05:19;7.50;1.00
463;DHT22;218;51.902;9.542;2022-12-07T03:07:53;7.50;1.00
463;DHT22;218;51.902;9.542;2022-12-07T03:10:27;8.60;1.00
463;DHT22;218;51.902;9.542;2022-12-07T03:13:02;7.60;1.00
463;DHT22;218;51.902;9.542;2022-12-07T03:15:38;7.60;1.00
463;DHT22;218;51.902;9.542;2022-12-07T03:18:07;7.60;1.00
463;DHT22;218;51.902;9.542;2022-12-07T03:20:37;9.60;1.00
463;DHT22;218;51.902;9.542;2022-12-07T03:23:07;7.60;1.00
463;DHT22;218;51.902;9.542;2022-12-07T03:25:39;7.50;1.00
463;DHT22;218;51.902;9.542;2022-12-07T03:28:09;7.50;1.00
463;DHT22;218;51.902;9.542;2022-12-07T03:33:12;7.50;1.00
463;DHT22;218;51.902;9.542;2022-12-07T03:35:42;7.50;1.00
463;DHT22;218;51.902;9.542;2022-12-07T03:38:15;7.50;1.00
463;DHT22;218;51.902;9.542;2022-12-07T03:40:48;7.50;1.00
463;DHT22;218;51.902;9.542;2022-12-07T03:43:18;7.50;1.00
463;DHT22;218;51.902;9.542;2022-12-07T03:45:54;7.50;1.00
463;DHT22;218;51.902;9.542;2022-12-07T03:48:27;7.40;1.00
463;DHT22;218;51.902;9.542;2022-12-07T03:51:01;7.50;1.00
463;DHT22;218;51.902;9.542;2022-12-07T03:53:35;7.40;1.00
463;DHT22;218;51.902;9.542;2022-12-07T03:56:04;7.40;1.00
463;DHT22;218;51.902;9.542;2022-12-07T03:58:32;7.40;1.00
463;DHT22;218;51.902;9.542;2022-12-07T04:01:01;7.40;1.00
463;DHT22;218;51.902;9.542;2022-12-07T04:03:28;7.50;1.00
463;DHT22;218;51.902;9.542;2022-12-07T04:05:54;8.00;1.00
463;DHT22;218;51.902;9.542;2022-12-07T04:08:22;7.50;1.00
463;DHT22;218;51.902;9.542;2022-12-07T04:10:49;7.60;1.00
463;DHT22;218;51.902;9.542;2022-12-07T04:13:16;10.60;1.00
463;DHT22;218;51.902;9.542;2022-12-07T04:15:43;7.50;1.00
463;DHT22;218;51.902;9.542;2022-12-07T04:18:11;7.50;1.00
463;DHT22;218;51.902;9.542;2022-12-07T04:20:38;7.60;1.00
463;DHT22;218;51.902;9.542;2022-12-07T04:23:05;7.50;1.00
463;DHT22;218;51.902;9.542;2022-12-07T04:25:32;7.60;1.00
463;DHT22;218;51.902;9.542;2022-12-07T04:27:59;7.60;1.00
463;DHT22;218;51.902;9.542;2022-12-07T04:30:26;8.20;1.00
463;DHT22;218;51.902;9.542;2022-12-07T04:32:53;7.60;1.00
463;DHT22;218;51.902;9.542;2022-12-07T04:35:21;7.50;1.00
463;DHT22;218;51.902;9.542;2022-12-07T04:37:48;7.50;1.00
463;DHT22;218;51.902;9.542;2022-12-07T04:40:15;7.60;1.00
463;DHT22;218;51.902;9.542;2022-12-07T04:42:42;7.60;1.00
463;DHT22;218;51.902;9.542;2022-12-07T04:45:09;7.60;1.00
463;DHT22;218;51.902;9.542;2022-12-07T04:47:36;7.50;1.00
463;DHT22;218;51.902;9.542;2022-12-07T04:50:04;7.60;1.00
463;DHT22;218;51.902;9.542;2022-12-07T04:52:33;7.50;1.00
463;DHT22;218;51.902;9.542;2022-12-07T04:55:00;7.50;1.00
463;DHT22;218;51.902;9.542;2022-12-07T04:57:27;7.60;1.00
463;DHT22;218;51.902;9.542;2022-12-07T04:59:54;7.60;1.00
463;DHT22;218;51.902;9.542;2022-12-07T05:02:21;7.60;1.00
463;DHT22;218;51.902;9.542;2022-12-07T05:04:48;7.60;1.00
463;DHT22;218;51.902;9.542;2022-12-07T05:07:14;7.60;1.00
463;DHT22;218;51.902;9.542;2022-12-07T05:09:43;7.60;1.00
463;DHT22;218;51.902;9.542;2022-12-07T05:12:10;7.70;1.00
463;DHT22;218;51.902;9.542;2022-12-07T05:14:37;3.60;1.00
463;DHT22;218;51.902;9.542;2022-12-07T05:17:03;7.60;1.00
463;DHT22;218;51.902;9.542;2022-12-07T05:19:30;8.30;1.00
463;DHT22;218;51.902;9.542;2022-12-07T05:21:57;7.80;1.00
463;DHT22;218;51.902;9.542;2022-12-07T05:24:26;7.60;1.00
463;DHT22;218;51.902;9.542;2022-12-07T05:26:54;7.60;1.00
463;DHT22;218;51.902;9.542;2022-12-07T05:29:21;7.60;1.00
463;DHT22;218;51.902;9.542;2022-12-07T05:31:48;7.60;1.00
463;DHT22;218;51.902;9.542;2022-12-07T05:34:15;7.60;1.00
463;DHT22;218;51.902;9.542;2022-12-07T05:36:42;7.60;1.00
463;DHT22;218;51.902;9.542;2022-12-07T05:39:09;7.70;1.00
463;DHT22;218;51.902;9.542;2022-12-07T05:41:36;7.60;1.00
463;DHT22;218;51.902;9.542;2022-12-07T05:44:22;7.60;1.00
463;DHT22;218;51.902;9.542;2022-12-07T05:46:49;7.60;1.00
463;DHT22;218;51.902;9.542;2022-12-07T05:49:16;7.60;1.00
463;DHT22;218;51.902;9.542;2022-12-07T05:51:43;7.60;1.00
463;DHT22;218;51.902;9.542;2022-12-07T05:54:10;7.70;1.00
463;DHT22;218;51.902;9.542;2022-12-07T05:56:37;7.70;1.00
463;DHT22;218;51.902;9.542;2022-12-07T05:59:04;7.70;1.00
463;DHT22;218;51.902;9.542;2022-12-07T06:01:51;7.70;1.00
463;DHT22;218;51.902;9.542;2022-12-07T06:04:19;7.60;1.00
463;DHT22;218;51.902;9.542;2022-12-07T06:06:46;7.70;1.00
463;DHT22;218;51.902;9.542;2022-12-07T06:09:13;7.70;1.00
463;DHT22;218;51.902;9.542;2022-12-07T06:11:41;7.70;1.00
463;DHT22;218;51.902;9.542;2022-12-07T06:14:25;7.70;1.00
463;DHT22;218;51.902;9.542;2022-12-07T06:16:54;7.70;1.00
463;DHT22;218;51.902;9.542;2022-12-07T06:19:21;7.70;1.00
463;DHT22;218;51.902;9.542;2022-12-07T06:21:48;7.70;1.00
463;DHT22;218;51.902;9.542;2022-12-07T06:24:15;7.80;1.00
463;DHT22;218;51.902;9.542;2022-12-07T06:26:43;7.70;1.00
463;DHT22;218;51.902;9.542;2022-12-07T06:29:10;7.70;1.00
463;DHT22;218;51.902;9.542;2022-12-07T06:31:38;9.30;1.00
463;DHT22;218;51.902;9.542;2022-12-07T06:34:08;7.70;1.00
463;DHT22;218;51.902;9.542;2022-12-07T06:36:36;7.70;1.00
463;DHT22;218;51.902;9.542;2022-12-07T06:39:03;7.70;1.00
463;DHT22;218;51.902;9.542;2022-12-07T06:41:31;7.70;1.00
463;DHT22;218;51.902;9.542;2022-12-07T06:43:58;7.70;1.00
463;DHT22;218;51.902;9.542;2022-12-07T06:46:25;7.70;1.00
463;DHT22;218;51.902;9.542;2022-12-07T06:48:52;7.80;1.00
463;DHT22;218;51.902;9.542;2022-12-07T06:51:20;7.70;1.00
463;DHT22;218;51.902;9.542;2022-12-07T06:53:47;7.80;1.00
463;DHT22;218;51.902;9.542;2022-12-07T06:56:14;7.70;1.00
463;DHT22;218;51.902;9.542;2022-12-07T06:58:41;7.80;1.00
463;DHT22;218;51.902;9.542;2022-12-07T07:01:10;7.80;1.00
463;DHT22;218;51.902;9.542;2022-12-07T07:03:37;7.80;1.00
463;DHT22;218;51.902;9.542;2022-12-07T07:06:04;7.80;1.00
463;DHT22;218;51.902;9.542;2022-12-07T07:08:33;7.80;1.00
463;DHT22;218;51.902;9.542;2022-12-07T07:11:00;7.80;1.00
463;DHT22;218;51.902;9.542;2022-12-07T07:13:27;7.80;1.00
463;DHT22;218;51.902;9.542;2022-12-07T07:15:54;7.80;1.00
463;DHT22;218;51.902;9.542;2022-12-07T07:18:21;7.80;1.00
463;DHT22;218;51.902;9.542;2022-12-07T07:20:50;7.80;1.00
463;DHT22;218;51.902;9.542;2022-12-07T07:23:17;7.90;1.00
463;DHT22;218;51.902;9.542;2022-12-07T07:25:46;7.80;1.00
463;DHT22;218;51.902;9.542;2022-12-07T07:28:13;7.80;1.00
463;DHT22;218;51.902;9.542;2022-12-07T07:30:40;7.90;1.00
463;DHT22;218;51.902;9.542;2022-12-07T07:33:07;7.90;1.00
463;DHT22;218;51.902;9.542;2022-12-07T07:35:34;7.90;1.00
463;DHT22;218;51.902;9.542;2022-12-07T07:38:02;8.60;1.00
463;DHT22;218;51.902;9.542;2022-12-07T07:40:29;7.90;1.00
463;DHT22;218;51.902;9.542;2022-12-07T07:42:58;7.80;1.00
463;DHT22;218;51.902;9.542;2022-12-07T07:45:26;7.90;1.00
463;DHT22;218;51.902;9.542;2022-12-07T07:47:53;7.90;1.00
463;DHT22;218;51.902;9.542;2022-12-07T07:50:20;7.90;1.00
463;DHT22;218;51.902;9.542;2022-12-07T07:52:48;7.90;1.00
463;DHT22;218;51.902;9.542;2022-12-07T07:55:15;7.90;1.00
463;DHT22;218;51.902;9.542;2022-12-07T07:57:42;7.90;1.00
463;DHT22;218;51.902;9.542;2022-12-07T08:00:13;7.90;1.00
463;DHT22;218;51.902;9.542;2022-12-07T08:02:41;7.90;1.00
463;DHT22;218;51.902;9.542;2022-12-07T08:05:10;7.80;1.00
463;DHT22;218;51.902;9.542;2022-12-07T08:07:37;7.80;1.00
463;DHT22;218;51.902;9.542;2022-12-07T08:10:05;7.90;1.00
463;DHT22;218;51.902;9.542;2022-12-07T08:12:37;7.90;1.00
463;DHT22;218;51.902;9.542;2022-12-07T08:15:27;7.90;1.00
463;DHT22;218;51.902;9.542;2022-12-07T08:17:55;7.80;1.00
463;DHT22;218;51.902;9.542;2022-12-07T08:20:22;9.70;1.00
463;DHT22;218;51.902;9.542;2022-12-07T08:22:49;7.90;1.00
463;DHT22;218;51.902;9.542;2022-12-07T08:25:16;7.90;1.00
463;DHT22;218;51.902;9.542;2022-12-07T08:27:43;7.90;1.00
463;DHT22;218;51.902;9.542;2022-12-07T08:30:10;8.20;1.00
463;DHT22;218;51.902;9.542;2022-12-07T08:32:39;7.90;1.00
463;DHT22;218;51.902;9.542;2022-12-07T08:35:06;7.90;1.00
463;DHT22;218;51.902;9.542;2022-12-07T08:37:33;7.90;1.00
463;DHT22;218;51.902;9.542;2022-12-07T08:40:00;7.90;1.00
463;DHT22;218;51.902;9.542;2022-12-07T08:42:27;7.90;1.00
463;DHT22;218;51.902;9.542;2022-12-07T08:44:55;8.30;1.00
463;DHT22;218;51.902;9.542;2022-12-07T08:47:23;8.00;1.00
463;DHT22;218;51.902;9.542;2022-12-07T08:49:53;8.00;1.00
463;DHT22;218;51.902;9.542;2022-12-07T08:52:21;7.90;1.00
463;DHT22;218;51.902;9.542;2022-12-07T08:54:48;8.00;1.00
463;DHT22;218;51.902;9.542;2022-12-07T08:57:15;8.00;1.00
463;DHT22;218;51.902;9.542;2022-12-07T08:59:42;8.00;1.00
463;DHT22;218;51.902;9.542;2022-12-07T09:02:09;8.00;1.00
463;DHT22;218;51.902;9.542;2022-12-07T09:04:36;8.00;1.00
463;DHT22;218;51.902;9.542;2022-12-07T09:07:05;8.00;1.00
463;DHT22;218;51.902;9.542;2022-12-07T09:09:32;8.10;1.00
463;DHT22;218;51.902;9.542;2022-12-07T09:11:59;8.00;1.00
463;DHT22;218;51.902;9.542;2022-12-07T09:14:26;8.10;1.00
463;DHT22;218;51.902;9.542;2022-12-07T09:16:53;8.10;1.00
463;DHT22;218;51.902;9.542;2022-12-07T09:19:20;8.10;1.00
463;DHT22;218;51.902;9.542;2022-12-07T09:21:47;8.00;1.00
463;DHT22;218;51.902;9.542;2022-12-07T09:24:15;8.10;1.00
463;DHT22;218;51.902;9.542;2022-12-07T09:26:42;8.10;1.00
463;DHT22;218;51.902;9.542;2022-12-07T09:29:09;8.00;1.00
463;DHT22;218;51.902;9.542;2022-12-07T09:31:37;8.00;1.00
463;DHT22;218;51.902;9.542;2022-12-07T09:34:04;8.10;1.00
463;DHT22;218;51.902;9.542;2022-12-07T09:36:31;8.10;1.00
463;DHT22;218;51.902;9.542;2022-12-07T09:38:58;8.10;1.00
463;DHT22;218;51.902;9.542;2022-12-07T09:41:27;8.10;1.00
463;DHT22;218;51.902;9.542;2022-12-07T09:44:03;8.10;1.00
463;DHT22;218;51.902;9.542;2022-12-07T09:46:35;8.10;1.00
463;DHT22;218;51.902;9.542;2022-12-07T09:49:03;8.10;1.00
463;DHT22;218;51.902;9.542;2022-12-07T09:51:30;8.10;1.00
463;DHT22;218;51.902;9.542;2022-12-07T09:53:58;8.10;1.00
463;DHT22;218;51.902;9.542;2022-12-07T09:56:29;8.20;1.00
463;DHT22;218;51.902;9.542;2022-12-07T09:58:59;8.10;1.00
463;DHT22;218;51.902;9.542;2022-12-07T10:01:28;8.20;1.00
463;DHT22;218;51.902;9.542;2022-12-07T10:04:01;8.20;1.00
463;DHT22;218;51.902;9.542;2022-12-07T10:06:28;8.20;1.00
463;DHT22;218;51.902;9.542;2022-12-07T10:08:55;10.40;1.00
463;DHT22;218;51.902;9.542;2022-12-07T10:11:22;8.20;1.00
463;DHT22;218;51.902;9.542;2022-12-07T10:13:52;8.30;1.00
463;DHT22;218;51.902;9.542;2022-12-07T10:16:32;8.30;1.00
463;DHT22;218;51.902;9.542;2022-12-07T10:19:18;9.40;1.00
463;DHT22;218;51.902;9.542;2022-12-07T10:22:08;8.20;1.00
463;DHT22;218;51.902;9.542;2022-12-07T10:24:36;8.30;1.00
463;DHT22;218;51.902;9.542;2022-12-07T10:27:18;8.30;1.00
463;DHT22;218;51.902;9.542;2022-12-07T10:29:50;8.30;1.00
463;DHT22;218;51.902;9.542;2022-12-07T10:32:31;8.30;1.00
463;DHT22;218;51.902;9.542;2022-12-07T10:35:21;8.30;1.00
463;DHT22;218;51.902;9.542;2022-12-07T10:37:49;8.30;1.00
463;DHT22;218;51.902;9.542;2022-12-07T10:40:28;8.30;1.00
463;DHT22;218;51.902;9.542;2022-12-07T10:43:04;8.30;1.00
463;DHT22;218;51.902;9.542;2022-12-07T10:45:35;8.30;1.00
463;DHT22;218;51.902;9.542;2022-12-07T10:48:11;8.40;1.00
463;DHT22;218;51.902;9.542;2022-12-07T10:50:52;8.30;1.00
463;DHT22;218;51.902;9.542;2022-12-07T10:53:33;8.30;1.00
463;DHT22;218;51.902;9.542;2022-12-07T10:59:56;8.40;1.00
463;DHT22;218;51.902;9.542;2022-12-07T11:02:36;8.40;1.00
463;DHT22;218;51.902;9.542;2022-12-07T11:05:15;8.40;1.00
463;DHT22;218;51.902;9.542;2022-12-07T11:07:50;8.40;1.00
463;DHT22;218;51.902;9.542;2022-12-07T11:10:24;8.70;1.00
463;DHT22;218;51.902;9.542;2022-12-07T11:13:03;8.40;1.00
463;DHT22;218;51.902;9.542;2022-12-07T11:15:40;8.50;1.00
463;DHT22;218;51.902;9.542;2022-12-07T11:18:14;8.60;1.00
463;DHT22;218;51.902;9.542;2022-12-07T11:20:47;8.60;1.00
463;DHT22;218;51.902;9.542;2022-12-07T11:23:27;8.60;1.00
463;DHT22;218;51.902;9.542;2022-12-07T11:28:40;8.60;1.00
463;DHT22;218;51.902;9.542;2022-12-07T11:31:13;8.70;1.00
463;DHT22;218;51.902;9.542;2022-12-07T11:33:47;8.60;1.00
463;DHT22;218;51.902;9.542;2022-12-07T11:36:33;8.70;1.00
463;DHT22;218;51.902;9.542;2022-12-07T11:39:03;8.60;1.00
463;DHT22;218;51.902;9.542;2022-12-07T11:41:35;8.70;1.00
463;DHT22;218;51.902;9.542;2022-12-07T11:46:44;8.70;1.00
463;DHT22;218;51.902;9.542;2022-12-07T11:49:20;8.60;1.00
463;DHT22;218;51.902;9.542;2022-12-07T11:51:53;8.70;1.00
463;DHT22;218;51.902;9.542;2022-12-07T11:56:51;8.80;1.00
463;DHT22;218;51.902;9.542;2022-12-07T11:59:25;8.80;1.00
463;DHT22;218;51.902;9.542;2022-12-07T12:01:57;8.70;1.00
463;DHT22;218;51.902;9.542;2022-12-07T12:04:34;8.70;1.00
463;DHT22;218;51.902;9.542;2022-12-07T12:07:06;8.80;1.00
463;DHT22;218;51.902;9.542;2022-12-07T12:09:35;8.60;1.00
463;DHT22;218;51.902;9.542;2022-12-07T12:12:25;8.80;1.00
463;DHT22;218;51.902;9.542;2022-12-07T12:15:06;8.90;1.00
463;DHT22;218;51.902;9.542;2022-12-07T12:18:05;8.90;1.00
463;DHT22;218;51.902;9.542;2022-12-07T12:20:41;8.90;1.00
463;DHT22;218;51.902;9.542;2022-12-07T12:23:12;8.90;1.00
463;DHT22;218;51.902;9.542;2022-12-07T12:25:42;9.10;1.00
463;DHT22;218;51.902;9.542;2022-12-07T12:28:22;9.00;1.00
463;DHT22;218;51.902;9.542;2022-12-07T12:31:05;9.10;1.00
463;DHT22;218;51.902;9.542;2022-12-07T12:33:35;9.00;1.00
463;DHT22;218;51.902;9.542;2022-12-07T12:36:46;9.00;1.00
463;DHT22;218;51.902;9.542;2022-12-07T12:39:15;9.00;1.00
463;DHT22;218;51.902;9.542;2022-12-07T12:42:00;9.10;1.00
463;DHT22;218;51.902;9.542;2022-12-07T12:50:28;9.10;1.00
463;DHT22;218;51.902;9.542;2022-12-07T12:53:02;9.10;1.00
463;DHT22;218;51.902;9.542;2022-12-07T13:07:55;9.10;1.00
463;DHT22;218;51.902;9.542;2022-12-07T13:10:45;8.90;1.00
463;DHT22;218;51.902;9.542;2022-12-07T13:22:40;9.10;1.00
463;DHT22;218;51.902;9.542;2022-12-07T13:27:41;9.00;1.00
463;DHT22;218;51.902;9.542;2022-12-07T13:30:14;9.10;1.00
463;DHT22;218;51.902;9.542;2022-12-07T13:32:42;9.10;1.00
463;DHT22;218;51.902;9.542;2022-12-07T13:35:29;9.10;1.00
463;DHT22;218;51.902;9.542;2022-12-07T13:37:56;9.10;1.00
463;DHT22;218;51.902;9.542;2022-12-07T13:40:24;9.10;1.00
463;DHT22;218;51.902;9.542;2022-12-07T13:42:59;9.00;1.00
463;DHT22;218;51.902;9.542;2022-12-07T13:45:27;9.20;1.00
463;DHT22;218;51.902;9.542;2022-12-07T13:48:14;9.10;1.00
463;DHT22;218;51.902;9.542;2022-12-07T13:50:42;9.20;1.00
463;DHT22;218;51.902;9.542;2022-12-07T13:53:12;9.00;1.00
463;DHT22;218;51.902;9.542;2022-12-07T13:55:45;9.20;1.00
463;DHT22;218;51.902;9.542;2022-12-07T13:58:14;9.10;1.00
463;DHT22;218;51.902;9.542;2022-12-07T14:00:41;9.20;1.00
463;DHT22;218;51.902;9.542;2022-12-07T14:03:26;9.10;1.00
463;DHT22;218;51.902;9.542;2022-12-07T14:06:16;9.10;1.00
463;DHT22;218;51.902;9.542;2022-12-07T14:08:44;9.00;1.00
463;DHT22;218;51.902;9.542;2022-12-07T14:11:16;9.10;1.00
463;DHT22;218;51.902;9.542;2022-12-07T14:13:56;9.10;1.00
463;DHT22;218;51.902;9.542;2022-12-07T14:16:27;9.00;1.00
463;DHT22;218;51.902;9.542;2022-12-07T14:18:55;9.00;1.00
463;DHT22;218;51.902;9.542;2022-12-07T14:21:24;9.00;1.00
463;DHT22;218;51.902;9.542;2022-12-07T14:24:08;9.00;1.00
463;DHT22;218;51.902;9.542;2022-12-07T14:29:31;9.00;1.00
463;DHT22;218;51.902;9.542;2022-12-07T14:32:08;9.00;1.00
463;DHT22;218;51.902;9.542;2022-12-07T14:34:37;9.00;1.00
463;DHT22;218;51.902;9.542;2022-12-07T14:37:06;8.90;1.00
463;DHT22;218;51.902;9.542;2022-12-07T14:39:34;9.00;1.00
463;DHT22;218;51.902;9.542;2022-12-07T14:42:00;9.00;1.00
463;DHT22;218;51.902;9.542;2022-12-07T14:46:56;8.90;1.00
463;DHT22;218;51.902;9.542;2022-12-07T14:49:23;8.90;1.00
463;DHT22;218;51.902;9.542;2022-12-07T14:51:50;8.90;1.00
463;DHT22;218;51.902;9.542;2022-12-07T14:54:18;8.90;1.00
463;DHT22;218;51.902;9.542;2022-12-07T14:56:46;8.90;1.00
463;DHT22;218;51.902;9.542;2022-12-07T15:01:44;8.80;1.00
463;DHT22;218;51.902;9.542;2022-12-07T15:04:11;8.80;1.00
463;DHT22;218;51.902;9.542;2022-12-07T15:09:05;8.70;1.00
463;DHT22;218;51.902;9.542;2022-12-07T15:13:59;8.70;1.00
463;DHT22;218;51.902;9.542;2022-12-07T15:16:38;8.80;1.00
463;DHT22;218;51.902;9.542;2022-12-07T15:19:11;8.60;1.00
463;DHT22;218;51.902;9.542;2022-12-07T15:21:38;8.60;1.00
463;DHT22;218;51.902;9.542;2022-12-07T15:24:06;8.60;1.00
463;DHT22;218;51.902;9.542;2022-12-07T15:26:33;8.50;1.00
463;DHT22;218;51.902;9.542;2022-12-07T15:29:00;8.60;1.00
463;DHT22;218;51.902;9.542;2022-12-07T15:31:26;8.60;1.00
463;DHT22;218;51.902;9.542;2022-12-07T15:33:53;8.60;1.00
463;DHT22;218;51.902;9.542;2022-12-07T15:36:23;8.50;1.00
463;DHT22;218;51.902;9.542;2022-12-07T15:38:50;8.50;1.00
463;DHT22;218;51.902;9.542;2022-12-07T15:41:18;8.40;1.00
463;DHT22;218;51.902;9.542;2022-12-07T15:43:45;8.40;1.00
463;DHT22;218;51.902;9.542;2022-12-07T15:46:30;8.50;1.00
463;DHT22;218;51.902;9.542;2022-12-07T15:51:26;8.50;1.00
463;DHT22;218;51.902;9.542;2022-12-07T15:53:54;8.50;1.00
463;DHT22;218;51.902;9.542;2022-12-07T15:56:21;8.40;1.00
463;DHT22;218;51.902;9.542;2022-12-07T15:58:48;8.40;1.00
463;DHT22;218;51.902;9.542;2022-12-07T16:01:17;8.40;1.00
463;DHT22;218;51.902;9.542;2022-12-07T16:03:45;8.40;1.00
463;DHT22;218;51.902;9.542;2022-12-07T16:06:14;8.50;1.00
463;DHT22;218;51.902;9.542;2022-12-07T16:08:44;8.40;1.00
463;DHT22;218;51.902;9.542;2022-12-07T16:11:12;8.40;1.00
463;DHT22;218;51.902;9.542;2022-12-07T16:13:38;8.30;1.00
463;DHT22;218;51.902;9.542;2022-12-07T16:16:07;8.30;1.00
463;DHT22;218;51.902;9.542;2022-12-07T16:18:35;8.30;1.00
463;DHT22;218;51.902;9.542;2022-12-07T16:21:02;8.30;1.00
463;DHT22;218;51.902;9.542;2022-12-07T16:23:29;8.20;1.00
463;DHT22;218;51.902;9.542;2022-12-07T16:26:05;8.20;1.00
463;DHT22;218;51.902;9.542;2022-12-07T16:28:32;8.10;1.00
463;DHT22;218;51.902;9.542;2022-12-07T16:31:02;8.10;1.00
463;DHT22;218;51.902;9.542;2022-12-07T16:33:29;8.10;1.00
463;DHT22;218;51.902;9.542;2022-12-07T16:35:55;8.00;1.00
463;DHT22;218;51.902;9.542;2022-12-07T16:38:24;8.00;1.00
463;DHT22;218;51.902;9.542;2022-12-07T16:40:51;8.00;1.00
463;DHT22;218;51.902;9.542;2022-12-07T16:43:19;7.80;1.00
463;DHT22;218;51.902;9.542;2022-12-07T16:45:46;7.90;1.00
463;DHT22;218;51.902;9.542;2022-12-07T16:48:14;7.90;1.00
463;DHT22;218;51.902;9.542;2022-12-07T16:50:42;7.90;1.00
463;DHT22;218;51.902;9.542;2022-12-07T16:53:09;7.80;1.00
463;DHT22;218;51.902;9.542;2022-12-07T16:55:37;7.80;1.00
463;DHT22;218;51.902;9.542;2022-12-07T16:58:04;7.90;1.00
463;DHT22;218;51.902;9.542;2022-12-07T17:00:33;7.80;1.00
463;DHT22;218;51.902;9.542;2022-12-07T17:03:00;7.80;1.00
463;DHT22;218;51.902;9.542;2022-12-07T17:05:27;7.70;1.00
463;DHT22;218;51.902;9.542;2022-12-07T17:07:55;7.70;1.00
463;DHT22;218;51.902;9.542;2022-12-07T17:10:23;7.80;1.00
463;DHT22;218;51.902;9.542;2022-12-07T17:12:51;7.80;1.00
463;DHT22;218;51.902;9.542;2022-12-07T17:15:18;7.80;1.00
463;DHT22;218;51.902;9.542;2022-12-07T17:17:53;7.80;1.00
463;DHT22;218;51.902;9.542;2022-12-07T17:20:21;7.90;1.00
463;DHT22;218;51.902;9.542;2022-12-07T17:22:48;7.80;1.00
463;DHT22;218;51.902;9.542;2022-12-07T17:25:16;7.90;1.00
463;DHT22;218;51.902;9.542;2022-12-07T17:27:44;7.80;1.00
463;DHT22;218;51.902;9.542;2022-12-07T17:30:12;7.80;1.00
463;DHT22;218;51.902;9.542;2022-12-07T17:32:40;7.80;1.00
463;DHT22;218;51.902;9.542;2022-12-07T17:35:09;7.90;1.00
463;DHT22;218;51.902;9.542;2022-12-07T17:37:36;7.90;1.00
463;DHT22;218;51.902;9.542;2022-12-07T17:40:05;7.90;1.00
463;DHT22;218;51.902;9.542;2022-12-07T17:42:32;7.90;1.00
463;DHT22;218;51.902;9.542;2022-12-07T17:45:07;7.90;1.00
463;DHT22;218;51.902;9.542;2022-12-07T17:47:35;7.90;1.00
463;DHT22;218;51.902;9.542;2022-12-07T17:50:03;7.90;1.00
463;DHT22;218;51.902;9.542;2022-12-07T17:52:31;7.90;1.00
463;DHT22;218;51.902;9.542;2022-12-07T17:55:16;7.90;1.00
463;DHT22;218;51.902;9.542;2022-12-07T17:57:43;7.90;1.00
463;DHT22;218;51.902;9.542;2022-12-07T18:00:10;8.20;1.00
463;DHT22;218;51.902;9.542;2022-12-07T18:02:38;7.90;1.00
463;DHT22;218;51.902;9.542;2022-12-07T18:05:05;7.90;1.00
463;DHT22;218;51.902;9.542;2022-12-07T18:07:34;7.90;1.00
463;DHT22;218;51.902;9.542;2022-12-07T18:10:01;7.90;1.00
463;DHT22;218;51.902;9.542;2022-12-07T18:12:28;7.90;1.00
463;DHT22;218;51.902;9.542;2022-12-07T18:14:55;7.80;1.00
463;DHT22;218;51.902;9.542;2022-12-07T18:17:22;7.80;1.00
463;DHT22;218;51.902;9.542;2022-12-07T18:19:48;7.80;1.00
463;DHT22;218;51.902;9.542;2022-12-07T18:22:16;7.80;1.00
463;DHT22;218;51.902;9.542;2022-12-07T18:24:44;7.70;1.00
463;DHT22;218;51.902;9.542;2022-12-07T18:27:11;7.80;1.00
463;DHT22;218;51.902;9.542;2022-12-07T18:29:38;7.70;1.00
463;DHT22;218;51.902;9.542;2022-12-07T18:32:05;7.70;1.00